Disclaimer

Please do not use the information listed here in-flight or in-navigation, as they are not provided to us by the airports but are provided by volunteers, so they might be outdated.

Search


Regions


Airport information page

No radio frequency information is available.

Airport informations:
Latitude: 34° 08' 09.14" N
Longitude: 077° 32' 47.45" E
Elevation: 10682 feet - 3256 meters
Operating hours: N/A
Operating agency: Military
Timezone: UTC+5:30
Fuel: Aviation Gasoline (AVGAS), octane unknown.

Jet fuel avaiable but type is unknown.

Runway information:
06/24 - 500 x 85 feet< - >152 x 26 meters
07/25 - 500 x 60 feet< - >152 x 18 meters
07L/25R - 9040 x 150 feet< - >2755 x 46 meters

Recent METARs:
VILH 180130Z VRB01KT 6000 SCT060 BKN120 M04/M17 Q1027 TEMPO 29015G25KT RMK K,C,W-ANC. E-AC
VILH 180130Z VRB01KT 6000 SCT060 BKN120 M04/M17 Q1027 TEMPO 29015G25KT RMK K,C,W-ANC. E-AC

Airport on the map: